Huxford, Alabama
Current Conditions -  °F | °C
As of 2:53 PM on Monday 24 Nov 2014 (Local Time) from KGZH Reporting Station
Clear Clear  
Wind Chill: 77°   Ceiling: Unl
Heat Index: 78°   Visibility: 10mi
Dew Point: 55°   Wind: 7mph
Humidity: 46%   Direction: 250°WSW
Pressure: 29.84"   Gusts: NA
Location:  31.22°N, 87.46°W
Report Text: KGZH 242053Z AUTO 25006KT 10SM CLR 25/13 A2984 RMK AO2 SLP100 T02500128 53003
Loading
Personal Weather Stations






























Interactive Weather Map New forecast layout! Learn more

10-Day Weather Forecast

Advertisements
Track Severe Weather on mobile